Time;durP1;ratioP1;P1;durP2;ratioP2;P2;SDS_P1;SDS_P2;PMS_P1;PMS_P2;Temp;Humidity;BMP_temperature;BMP_pressure;BME280_temperature;BME280_humidity;BME280_pressure;Samples;Min_cycle;Max_cycle;Signal;HPM_P1;HPM_P2
2022/06/10 00:00:29;;;;;;;5.55;1.38;;;10.80;99.90;;;;;;5067503;28;20058;-48
2022/06/10 00:02:55;;;;;;;3.53;1.15;;;10.80;99.90;;;;;;5048452;28;20595;-57
2022/06/10 00:05:24;;;;;;;7.35;1.13;;;10.80;99.90;;;;;;5075153;28;20043;-50
2022/06/10 00:07:51;;;;;;;6.35;1.30;;;10.80;99.90;;;;;;5086152;28;20036;-53
2022/06/10 00:10:20;;;;;;;10.60;1.30;;;10.80;99.90;;;;;;5085427;28;20244;-50
2022/06/10 00:12:46;;;;;;;3.67;1.10;;;10.70;99.90;;;;;;5085758;28;20067;-57
2022/06/10 00:15:13;;;;;;;8.80;1.63;;;10.70;99.90;;;;;;5081206;28;20040;-50
2022/06/10 00:17:39;;;;;;;7.63;1.48;;;10.60;99.90;;;;;;5085542;28;20051;-51
2022/06/10 00:20:06;;;;;;;4.68;1.23;;;10.60;99.90;;;;;;5067820;28;20294;-55
2022/06/10 00:22:31;;;;;;;7.32;1.52;;;10.60;99.90;;;;;;5086078;28;20055;-60
2022/06/10 00:24:57;;;;;;;6.55;1.60;;;10.60;99.90;;;;;;5081485;28;20049;-57
2022/06/10 00:27:23;;;;;;;8.35;1.52;;;10.60;99.90;;;;;;5086085;28;20055;-61
2022/06/10 00:29:49;;;;;;;6.50;1.40;;;10.60;99.90;;;;;;5085360;28;20130;-50
2022/06/10 00:32:17;;;;;;;5.28;1.20;;;10.50;99.90;;;;;;5085499;28;20044;-57
2022/06/10 00:34:43;;;;;;;1.92;0.93;;;10.50;99.90;;;;;;5078474;28;20167;-51
2022/06/10 00:37:10;;;;;;;5.15;1.50;;;10.50;99.90;;;;;;5086030;28;20048;-52
2022/06/10 00:39:36;;;;;;;9.70;1.55;;;10.50;99.90;;;;;;5085650;28;20048;-55
2022/06/10 00:42:04;;;;;;;13.38;1.70;;;10.50;99.90;;;;;;5085543;28;20129;-50
2022/06/10 00:44:39;;;;;;;9.02;2.10;;;10.50;99.90;;;;;;5082458;28;20044;-49
2022/06/10 00:47:19;;;;;;;4.97;1.58;;;10.50;99.90;;;;;;5083567;28;20048;-55
2022/06/10 00:49:59;;;;;;;12.70;2.80;;;10.50;99.90;;;;;;5085539;28;20059;-54
2022/06/10 00:52:32;;;;;;;6.40;1.13;;;10.60;99.90;;;;;;5085669;28;20043;-59
2022/06/10 00:54:58;;;;;;;8.93;1.35;;;10.60;99.90;;;;;;5081364;28;20044;-57
2022/06/10 00:57:33;;;;;;;10.23;1.48;;;10.60;99.90;;;;;;5084677;28;20482;-55
2022/06/10 01:00:19;;;;;;;9.38;1.65;;;10.60;99.90;;;;;;5085007;28;20125;-64
2022/06/10 01:02:45;;;;;;;7.90;2.13;;;10.50;99.90;;;;;;5085407;28;20048;-55
2022/06/10 01:05:15;;;;;;;8.98;1.60;;;10.50;99.90;;;;;;5083393;28;20052;-54
2022/06/10 01:07:48;;;;;;;7.95;1.38;;;10.50;99.90;;;;;;5071727;28;20036;-58
2022/06/10 01:10:16;;;;;;;8.93;1.48;;;10.50;99.90;;;;;;5085207;28;20087;-48
2022/06/10 01:13:13;;;;;;;6.05;1.50;;;10.50;99.90;;;;;;5085671;28;20089;-56
2022/06/10 01:15:53;;;;;;;4.85;1.52;;;10.50;99.90;;;;;;5084303;28;20334;-55
2022/06/10 01:18:31;;;;;;;6.60;1.55;;;10.50;99.90;;;;;;5085146;28;20044;-56
2022/06/10 01:21:29;;;;;;;7.82;1.50;;;10.50;99.90;;;;;;5087121;28;20055;-53
2022/06/10 01:24:36;;;;;;;10.20;1.75;;;10.50;99.90;;;;;;5088820;28;20117;-57
2022/06/10 01:30:30;;;;;;;9.45;1.77;;;10.50;99.90;;;;;;5070404;28;20048;-65
2022/06/10 01:33:25;;;;;;;8.05;1.48;;;10.50;99.90;;;;;;5076726;28;20052;-56
2022/06/10 01:36:13;;;;;;;7.18;1.40;;;10.50;99.90;;;;;;5088889;28;20051;-49
2022/06/10 01:39:14;;;;;;;7.85;1.58;;;10.50;99.90;;;;;;5056757;28;20174;-63
2022/06/10 01:41:58;;;;;;;7.97;1.52;;;10.50;99.90;;;;;;5084162;28;20044;-60
2022/06/10 01:44:51;;;;;;;4.38;1.52;;;10.50;99.90;;;;;;5070253;28;20058;-52
2022/06/10 01:47:25;;;;;;;8.43;1.67;;;10.50;99.90;;;;;;5077091;28;20051;-54
2022/06/10 01:50:25;;;;;;;9.10;1.58;;;10.50;99.90;;;;;;5088516;28;20056;-64
2022/06/10 01:53:08;;;;;;;9.07;1.83;;;10.50;99.90;;;;;;5059867;28;20051;-48
2022/06/10 01:55:43;;;;;;;8.77;1.60;;;10.50;99.90;;;;;;5068788;28;20040;-56
2022/06/10 01:58:21;;;;;;;11.20;1.80;;;10.50;99.90;;;;;;5087969;28;20052;-59
2022/06/10 02:00:51;;;;;;;11.45;1.27;;;10.50;99.90;;;;;;5087743;28;20055;-49
2022/06/10 02:03:21;;;;;;;6.47;1.38;;;10.50;99.90;;;;;;5082973;28;20089;-55
2022/06/10 02:06:13;;;;;;;;;;;10.60;99.90;;;;;;5088516;28;20076;-61
2022/06/10 02:08:52;;;;;;;6.78;1.55;;;10.50;99.90;;;;;;5071557;28;20031;-52
2022/06/10 02:11:22;;;;;;;9.77;1.60;;;10.50;99.90;;;;;;5074422;28;20405;-51
2022/06/10 02:13:58;;;;;;;5.80;1.58;;;10.50;99.90;;;;;;5088204;28;20313;-57
2022/06/10 02:16:31;;;;;;;6.53;1.52;;;10.40;99.90;;;;;;5088584;28;20048;-51
2022/06/10 02:19:13;;;;;;;6.95;1.48;;;10.40;99.90;;;;;;5086211;28;20048;-49
2022/06/10 02:21:50;;;;;;;10.20;1.80;;;10.40;99.90;;;;;;5075949;28;20117;-49
2022/06/10 02:24:40;;;;;;;7.15;1.58;;;10.30;99.90;;;;;;5064224;28;20051;-56
2022/06/10 02:27:16;;;;;;;6.55;1.30;;;10.30;99.90;;;;;;5087129;28;20040;-53
2022/06/10 02:30:05;;;;;;;6.05;1.60;;;10.20;99.90;;;;;;5070069;28;20040;-52
2022/06/10 02:32:33;;;;;;;5.78;1.77;;;10.20;99.90;;;;;;5086715;28;20028;-61
2022/06/10 02:34:59;;;;;;;6.47;1.60;;;10.20;99.90;;;;;;5052852;28;20048;-53
2022/06/10 02:37:47;;;;;;;8.75;2.13;;;10.20;99.90;;;;;;5085830;28;20059;-48
2022/06/10 02:40:16;;;;;;;14.73;3.05;;;10.10;99.90;;;;;;5052343;28;20040;-49
2022/06/10 02:43:07;;;;;;;8.75;2.25;;;10.20;99.90;;;;;;5088238;28;20127;-56
2022/06/10 02:45:37;;;;;;;9.55;2.30;;;10.10;99.90;;;;;;5075913;28;20513;-51
2022/06/10 02:48:29;;;;;;;5.43;1.65;;;10.10;99.90;;;;;;5086885;28;20052;-59
2022/06/10 02:50:55;;;;;;;8.77;1.75;;;10.20;99.90;;;;;;5069472;28;20056;-51
2022/06/10 02:53:21;;;;;;;6.03;1.70;;;10.20;99.90;;;;;;5086658;28;20518;-50
2022/06/10 02:55:47;;;;;;;10.80;2.03;;;10.20;99.90;;;;;;5087740;28;20040;-63
2022/06/10 03:01:20;;;;;;;9.38;1.90;;;10.20;99.90;;;;;;5085288;28;20056;-55
2022/06/10 03:03:58;;;;;;;10.32;2.05;;;10.20;99.90;;;;;;5087538;28;20119;-54
2022/06/10 03:06:33;;;;;;;8.35;1.73;;;10.20;99.90;;;;;;5068401;28;20052;-49
2022/06/10 03:09:14;;;;;;;10.93;2.47;;;10.10;99.90;;;;;;5087124;28;20055;-61
2022/06/10 03:12:15;;;;;;;11.55;2.40;;;10.10;99.90;;;;;;5086335;28;20126;-62
2022/06/10 03:14:52;;;;;;;5.80;1.70;;;10.00;99.90;;;;;;5086749;28;20506;-52
2022/06/10 03:17:55;;;;;;;11.35;1.92;;;10.00;99.90;;;;;;5086672;28;20036;-58
2022/06/10 03:20:38;;;;;;;9.18;1.70;;;10.00;99.90;;;;;;5082060;28;20565;-58
2022/06/10 03:23:12;;;;;;;12.18;1.63;;;10.00;99.90;;;;;;5067955;28;20052;-62
2022/06/10 03:25:49;;;;;;;7.50;2.05;;;10.00;99.90;;;;;;5087430;28;20059;-55
2022/06/10 03:28:28;;;;;;;8.63;2.00;;;9.90;99.90;;;;;;5086277;28;20048;-62
2022/06/10 03:30:59;;;;;;;11.95;1.95;;;9.90;99.90;;;;;;5085004;28;20497;-61
2022/06/10 03:33:55;;;;;;;9.40;1.67;;;9.90;99.90;;;;;;5086231;28;20082;-47
2022/06/10 03:36:25;;;;;;;6.82;1.80;;;10.00;99.90;;;;;;5067784;28;20618;-53
2022/06/10 03:38:53;;;;;;;7.22;1.58;;;10.00;99.90;;;;;;5087231;28;20043;-55
2022/06/10 03:41:22;;;;;;;7.90;2.03;;;10.00;99.90;;;;;;5084357;28;20072;-55
2022/06/10 03:43:51;;;;;;;8.57;1.53;;;10.00;99.90;;;;;;5085941;28;20406;-52
2022/06/10 03:46:18;;;;;;;9.55;2.10;;;10.00;99.90;;;;;;5051522;28;20036;-55
2022/06/10 03:48:46;;;;;;;10.90;2.08;;;10.00;99.90;;;;;;5086357;28;20054;-58
2022/06/10 03:51:13;;;;;;;10.32;2.05;;;10.00;99.90;;;;;;5086107;28;20060;-63
2022/06/10 03:53:39;;;;;;;4.20;1.52;;;10.00;99.90;;;;;;5084527;28;20052;-63
2022/06/10 03:56:05;;;;;;;11.43;2.40;;;10.00;99.90;;;;;;5086826;28;20036;-56
2022/06/10 03:58:31;;;;;;;10.18;2.00;;;10.10;99.90;;;;;;5085786;28;20106;-47
2022/06/10 04:00:58;;;;;;;12.18;2.22;;;10.10;99.90;;;;;;5085627;28;20075;-49
2022/06/10 04:03:24;;;;;;;10.07;2.13;;;10.10;99.90;;;;;;5072736;28;20055;-56
2022/06/10 04:05:50;;;;;;;13.57;2.28;;;10.20;99.90;;;;;;5086380;28;20044;-56
2022/06/10 04:08:16;;;;;;;9.70;2.55;;;10.20;99.90;;;;;;5085782;28;20051;-59
2022/06/10 04:10:41;;;;;;;9.38;1.85;;;10.30;99.90;;;;;;5085933;28;20099;-47
2022/06/10 04:13:07;;;;;;;9.90;1.83;;;10.30;99.90;;;;;;5067049;28;20058;-61
2022/06/10 04:15:34;;;;;;;10.93;2.40;;;10.30;99.90;;;;;;5085456;28;20040;-52
2022/06/10 04:17:59;;;;;;;7.65;1.85;;;10.40;99.90;;;;;;5086113;28;20052;-54
2022/06/10 04:20:32;;;;;;;7.78;2.30;;;10.40;99.90;;;;;;5067583;28;20754;-50
2022/06/10 04:22:58;;;;;;;11.95;1.65;;;10.40;99.90;;;;;;5083200;28;20043;-58
2022/06/10 04:25:24;;;;;;;10.45;1.95;;;10.50;99.90;;;;;;5076466;28;20711;-51
2022/06/10 04:27:51;;;;;;;18.27;2.50;;;10.50;99.90;;;;;;5085851;28;20055;-60
2022/06/10 04:30:30;;;;;;;13.07;2.92;;;10.60;99.90;;;;;;5085411;28;20044;-49
2022/06/10 04:32:56;;;;;;;6.43;2.03;;;10.60;99.90;;;;;;5085197;28;20048;-55
2022/06/10 04:35:24;;;;;;;8.00;2.08;;;10.70;99.90;;;;;;5033787;28;20493;-58
2022/06/10 04:37:51;;;;;;;11.23;2.00;;;10.80;99.90;;;;;;5050730;28;20548;-56
2022/06/10 04:40:19;;;;;;;17.17;2.10;;;10.90;99.90;;;;;;5085327;28;20569;-48
2022/06/10 04:42:46;;;;;;;10.93;2.67;;;10.90;99.90;;;;;;5085682;28;20072;-58
2022/06/10 04:45:16;;;;;;;9.32;1.88;;;11.00;99.90;;;;;;5053781;28;20052;-65
2022/06/10 04:47:41;;;;;;;8.00;2.20;;;11.10;99.90;;;;;;5085208;28;20044;-59
2022/06/10 04:50:11;;;;;;;16.05;2.30;;;11.20;99.90;;;;;;5085489;28;20044;-57
2022/06/10 04:52:37;;;;;;;11.20;2.33;;;11.30;99.90;;;;;;5085284;28;20052;-54
2022/06/10 04:55:05;;;;;;;9.52;2.35;;;11.40;99.90;;;;;;5085767;28;20505;-62
2022/06/10 04:57:31;;;;;;;14.15;2.92;;;11.50;99.90;;;;;;5070777;28;20040;-51
2022/06/10 04:59:57;;;;;;;8.23;2.30;;;11.60;99.90;;;;;;5070840;28;20494;-48
2022/06/10 05:02:23;;;;;;;8.57;2.22;;;11.70;99.90;;;;;;5089022;28;20052;-49
2022/06/10 05:04:49;;;;;;;8.90;2.25;;;12.10;99.90;;;;;;5069678;28;20072;-48
2022/06/10 05:07:15;;;;;;;14.15;2.90;;;12.80;99.90;;;;;;5088120;28;20504;-65
2022/06/10 05:09:41;;;;;;;14.90;2.47;;;13.60;99.90;;;;;;5089528;28;20085;-47
2022/06/10 05:12:07;;;;;;;15.98;2.88;;;13.90;99.90;;;;;;5071359;28;20048;-50
2022/06/10 05:14:34;;;;;;;15.13;3.03;;;13.80;99.90;;;;;;5088861;28;20048;-52
2022/06/10 05:17:01;;;;;;;9.27;2.88;;;13.70;99.90;;;;;;5083144;28;20048;-52
2022/06/10 05:19:29;;;;;;;10.20;2.47;;;13.60;99.90;;;;;;5086120;28;20069;-58
2022/06/10 05:21:56;;;;;;;14.85;3.58;;;13.60;99.90;;;;;;5089508;28;20449;-65
2022/06/10 05:24:22;;;;;;;14.05;2.85;;;13.50;99.90;;;;;;5053012;28;20066;-60
2022/06/10 05:26:48;;;;;;;16.38;3.58;;;13.50;99.90;;;;;;5088174;28;20040;-57
2022/06/10 05:29:13;;;;;;;11.00;2.42;;;13.50;99.90;;;;;;5089204;28;20063;-54
2022/06/10 05:31:39;;;;;;;16.27;2.83;;;13.60;99.90;;;;;;5053705;28;20055;-63
2022/06/10 05:36:56;;;;;;;14.00;3.28;;;13.80;99.90;;;;;;5074209;28;20052;-58
2022/06/10 05:39:21;;;;;;;18.50;4.15;;;14.10;99.90;;;;;;5066747;28;20389;-53
2022/06/10 05:42:05;;;;;;;21.88;3.58;;;14.30;99.90;;;;;;5085975;28;20040;-64
2022/06/10 05:44:33;;;;;;;11.85;3.00;;;14.40;99.90;;;;;;5087377;28;20484;-62
2022/06/10 05:47:00;;;;;;;17.48;2.63;;;14.60;99.90;;;;;;5085128;28;20044;-56
2022/06/10 05:49:26;;;;;;;19.58;3.35;;;14.80;99.90;;;;;;5064929;28;20043;-60
2022/06/10 05:51:54;;;;;;;12.93;2.53;;;15.10;99.90;;;;;;5065354;28;20632;-54
2022/06/10 05:54:21;;;;;;;14.20;3.28;;;15.30;99.90;;;;;;5066991;28;20055;-64
2022/06/10 05:56:46;;;;;;;9.45;2.50;;;15.40;99.90;;;;;;5068960;28;20036;-55
2022/06/10 05:59:14;;;;;;;15.90;3.33;;;15.50;99.90;;;;;;5084846;28;20052;-51
2022/06/10 06:01:40;;;;;;;11.27;2.97;;;15.60;99.90;;;;;;5079830;28;20109;-60
2022/06/10 06:04:06;;;;;;;16.65;4.03;;;15.70;99.90;;;;;;5066535;28;20046;-53
2022/06/10 06:06:34;;;;;;;14.57;3.17;;;15.70;99.90;;;;;;5066814;28;20044;-56
2022/06/10 06:09:00;;;;;;;23.60;3.35;;;15.80;99.90;;;;;;5082310;28;20040;-58
2022/06/10 06:11:26;;;;;;;10.93;2.90;;;15.80;99.90;;;;;;5069725;28;20127;-49
2022/06/10 06:13:52;;;;;;;13.00;3.10;;;15.80;99.90;;;;;;5069949;28;20043;-54
2022/06/10 06:16:19;;;;;;;14.30;3.17;;;15.70;99.90;;;;;;5088057;28;20032;-54
2022/06/10 06:18:45;;;;;;;15.55;2.90;;;15.80;99.90;;;;;;5066600;28;20051;-55
2022/06/10 06:21:11;;;;;;;14.02;4.32;;;15.80;99.90;;;;;;5080354;28;20037;-53
2022/06/10 06:23:37;;;;;;;11.98;2.95;;;15.70;99.90;;;;;;5085747;28;20048;-62
2022/06/10 06:26:03;;;;;;;16.35;3.47;;;15.70;99.90;;;;;;5067664;28;20150;-59
2022/06/10 06:28:31;;;;;;;12.27;2.63;;;15.70;99.90;;;;;;5084489;28;20139;-60
2022/06/10 06:30:56;;;;;;;14.80;2.85;;;15.80;99.90;;;;;;5066031;28;20079;-54
2022/06/10 06:33:24;;;;;;;14.93;3.03;;;15.80;99.90;;;;;;5084265;28;20518;-60
2022/06/10 06:35:52;;;;;;;14.88;3.80;;;15.80;99.90;;;;;;5081378;28;20041;-53
2022/06/10 06:38:19;;;;;;;13.45;2.90;;;15.80;99.90;;;;;;5079460;28;20372;-55
2022/06/10 06:40:46;;;;;;;17.65;3.03;;;15.80;99.90;;;;;;5082519;28;20044;-56
2022/06/10 06:43:11;;;;;;;11.95;2.65;;;15.80;99.90;;;;;;5047251;28;20045;-55
2022/06/10 06:45:38;;;;;;;14.00;3.45;;;15.80;99.90;;;;;;5077240;28;20050;-59
2022/06/10 06:48:09;;;;;;;13.73;2.47;;;15.80;99.90;;;;;;5081079;28;20155;-56
2022/06/10 06:50:39;;;;;;;17.52;3.13;;;15.90;99.90;;;;;;5085522;28;20142;-56
2022/06/10 06:53:04;;;;;;;14.65;2.92;;;15.90;99.90;;;;;;5085919;28;20063;-58
2022/06/10 06:55:30;;;;;;;12.05;2.47;;;16.00;99.90;;;;;;5080995;28;20371;-49
2022/06/10 06:57:56;;;;;;;12.30;3.03;;;16.10;99.90;;;;;;5068131;28;20055;-52
2022/06/10 07:00:22;;;;;;;11.57;2.40;;;16.00;99.90;;;;;;5081125;28;20049;-55
2022/06/10 07:02:48;;;;;;;11.57;2.50;;;16.20;99.90;;;;;;5083990;28;20038;-55
2022/06/10 07:05:14;;;;;;;11.35;3.00;;;16.30;99.90;;;;;;5081658;28;20044;-53
2022/06/10 07:07:41;;;;;;;15.05;2.72;;;16.50;99.90;;;;;;5083329;28;20139;-65
2022/06/10 07:10:08;;;;;;;15.82;2.53;;;16.70;99.90;;;;;;5083645;28;20432;-58
2022/06/10 07:12:33;;;;;;;15.65;3.17;;;16.80;99.90;;;;;;5085042;28;20199;-58
2022/06/10 07:14:59;;;;;;;7.38;2.08;;;16.90;99.90;;;;;;5086431;28;20036;-53
2022/06/10 07:17:25;;;;;;;8.65;2.33;;;16.80;99.90;;;;;;5086525;28;20119;-59
2022/06/10 07:19:52;;;;;;;10.82;1.85;;;16.90;99.90;;;;;;5085191;28;20043;-61
2022/06/10 07:22:18;;;;;;;13.77;3.60;;;16.80;99.90;;;;;;5087361;28;20040;-56
2022/06/10 07:24:46;;;;;;;16.20;2.92;;;16.90;99.90;;;;;;5086283;28;20043;-51
2022/06/10 07:27:12;;;;;;;8.70;2.60;;;17.00;99.90;;;;;;5052105;28;20131;-56
2022/06/10 07:29:38;;;;;;;14.15;2.60;;;17.30;99.90;;;;;;5084135;28;20036;-57
2022/06/10 07:32:04;;;;;;;15.88;3.22;;;17.50;99.90;;;;;;5078111;28;20066;-63
2022/06/10 07:34:29;;;;;;;11.18;2.58;;;17.50;99.90;;;;;;5068058;28;20105;-66
2022/06/10 07:36:55;;;;;;;9.32;2.72;;;17.50;99.90;;;;;;5087318;28;20486;-56
2022/06/10 07:39:21;;;;;;;10.60;2.53;;;17.30;99.90;;;;;;5068494;28;20321;-48
2022/06/10 07:42:02;;;;;;;17.65;3.67;;;17.30;99.90;;;;;;5079753;28;20032;-52
2022/06/10 07:44:34;;;;;;;6.93;2.15;;;17.20;99.90;;;;;;5086928;28;20044;-63
2022/06/10 07:47:03;;;;;;;10.27;2.53;;;17.10;99.90;;;;;;5086463;28;20071;-56
2022/06/10 07:49:29;;;;;;;10.70;2.15;;;16.90;99.90;;;;;;5086824;28;20513;-55
2022/06/10 07:51:57;;;;;;;12.55;2.30;;;16.80;99.90;;;;;;5065755;28;20048;-61
2022/06/10 07:54:23;;;;;;;14.55;2.78;;;16.70;99.90;;;;;;5086805;28;20044;-55
2022/06/10 07:56:49;;;;;;;9.93;2.47;;;16.60;99.90;;;;;;5066798;28;20046;-57
2022/06/10 07:59:15;;;;;;;8.75;2.42;;;16.60;99.90;;;;;;5083866;28;20458;-61
2022/06/10 08:01:41;;;;;;;11.25;2.35;;;16.60;99.90;;;;;;5079006;28;20110;-53
2022/06/10 08:04:08;;;;;;;10.40;2.20;;;16.60;99.90;;;;;;5084570;28;20557;-55
2022/06/10 08:06:37;;;;;;;7.72;2.47;;;16.70;99.90;;;;;;5074156;28;20044;-58
2022/06/10 08:09:03;;;;;;;11.77;2.90;;;16.80;99.90;;;;;;5079372;28;20071;-57
2022/06/10 08:11:29;;;;;;;19.02;5.72;;;16.90;99.90;;;;;;5086649;28;20048;-50
2022/06/10 08:13:55;;;;;;;18.92;3.50;;;16.90;99.90;;;;;;5076109;28;20600;-64
2022/06/10 08:16:22;;;;;;;8.38;2.70;;;17.00;99.90;;;;;;5084479;28;20039;-51
2022/06/10 08:18:54;;;;;;;12.68;3.38;;;17.10;99.90;;;;;;5073551;28;20091;-51
2022/06/10 08:24:06;;;;;;;12.23;3.63;;;17.20;99.90;;;;;;5086491;28;20049;-53
2022/06/10 08:26:32;;;;;;;11.55;3.17;;;17.30;99.90;;;;;;5071773;28;20105;-64
2022/06/10 08:28:59;;;;;;;16.58;3.67;;;17.30;99.90;;;;;;5084486;28;20401;-52
2022/06/10 08:31:25;;;;;;;7.43;3.00;;;17.40;99.90;;;;;;5087236;28;20051;-50
2022/06/10 08:33:50;;;;;;;11.48;3.30;;;17.40;99.90;;;;;;5087877;28;20394;-53
2022/06/10 08:36:16;;;;;;;17.50;3.25;;;17.40;99.90;;;;;;5089318;28;20091;-53
2022/06/10 08:38:42;;;;;;;9.95;3.08;;;17.50;99.90;;;;;;5086873;28;20044;-57
2022/06/10 08:41:26;;;;;;;8.82;2.90;;;17.50;99.90;;;;;;5066410;28;20056;-64
2022/06/10 08:44:06;;;;;;;10.68;3.38;;;17.60;99.90;;;;;;5052860;28;20051;-58
2022/06/10 08:46:48;;;;;;;11.05;3.15;;;17.60;99.90;;;;;;5087984;28;20080;-60
2022/06/10 08:49:52;;;;;;;8.43;2.97;;;17.70;99.90;;;;;;5089933;28;20044;-51
2022/06/10 08:52:52;;;;;;;9.60;3.28;;;17.90;99.90;;;;;;5063275;28;20135;-56
2022/06/10 08:55:47;;;;;;;14.95;3.17;;;18.10;99.90;;;;;;5083096;28;20039;-49
2022/06/10 08:58:20;;;;;;;9.65;3.78;;;18.20;99.90;;;;;;5085588;28;20077;-53
2022/06/10 09:00:48;;;;;;;10.30;3.25;;;18.20;99.90;;;;;;5070236;28;20127;-55
2022/06/10 09:03:28;;;;;;;9.75;3.03;;;18.20;99.90;;;;;;5069826;28;20040;-50
2022/06/10 09:05:56;;;;;;;;;;;18.10;99.90;;;;;;5088366;28;20390;-58
2022/06/10 09:08:30;;;;;;;12.60;3.47;;;18.00;99.90;;;;;;5089118;28;19974;-55
2022/06/10 09:11:06;;;;;;;8.25;3.00;;;17.90;99.90;;;;;;5088909;28;20524;-62
2022/06/10 09:13:48;;;;;;;16.15;3.72;;;17.70;99.90;;;;;;5089297;28;20047;-59
2022/06/10 09:16:36;;;;;;;14.93;3.40;;;17.60;99.90;;;;;;5069460;28;20070;-51
2022/06/10 09:19:22;;;;;;;11.85;3.42;;;17.50;99.90;;;;;;5088745;28;20097;-58
2022/06/10 09:22:22;;;;;;;15.95;3.45;;;17.40;99.90;;;;;;5088674;28;20386;-54
2022/06/10 09:24:51;;;;;;;16.63;3.08;;;17.30;99.90;;;;;;5089346;28;20048;-61
2022/06/10 09:27:22;;;;;;;13.60;3.10;;;17.30;99.90;;;;;;5088461;28;20123;-58
2022/06/10 09:29:48;;;;;;;15.73;3.17;;;17.20;99.90;;;;;;5088779;28;20081;-57
2022/06/10 09:32:48;;;;;;;19.10;4.20;;;17.30;99.90;;;;;;5087764;28;20559;-61
2022/06/10 09:35:31;;;;;;;12.30;3.28;;;17.20;99.90;;;;;;5034558;28;20048;-57
2022/06/10 09:38:11;;;;;;;14.43;3.33;;;17.30;99.90;;;;;;5085336;28;20044;-54
2022/06/10 09:40:41;;;;;;;13.68;3.83;;;17.30;99.90;;;;;;5089051;28;20661;-57
2022/06/10 09:43:44;;;;;;;13.30;3.60;;;17.30;99.90;;;;;;5067626;28;20055;-62
2022/06/10 09:46:27;;;;;;;10.40;3.40;;;17.30;99.90;;;;;;5081102;28;20097;-48
2022/06/10 09:49:13;;;;;;;7.60;3.10;;;17.40;99.90;;;;;;5087593;28;20055;-59
2022/06/10 09:51:57;;;;;;;14.32;4.13;;;17.50;99.90;;;;;;5087218;28;20063;-56
2022/06/10 09:55:09;;;;;;;27.92;4.30;;;17.80;99.90;;;;;;5070325;28;20098;-49
2022/06/10 09:58:04;;;;;;;12.18;3.33;;;17.90;99.90;;;;;;5058069;28;20090;-56
2022/06/10 10:01:00;;;;;;;15.88;3.97;;;17.90;99.90;;;;;;5060209;28;20040;-58
2022/06/10 10:03:56;;;;;;;11.00;3.70;;;17.90;99.90;;;;;;5067195;28;20470;-55
2022/06/10 10:06:28;;;;;;;9.82;4.20;;;17.90;99.90;;;;;;5088262;28;20071;-54
2022/06/10 10:09:15;;;;;;;12.15;3.70;;;17.90;99.90;;;;;;5084582;28;20044;-51
2022/06/10 10:12:00;;;;;;;13.32;4.07;;;17.90;99.90;;;;;;5088532;28;20046;-59
2022/06/10 10:14:25;;;;;;;13.93;3.85;;;17.90;99.90;;;;;;5087667;28;20048;-53
2022/06/10 10:17:33;;;;;;;12.93;4.07;;;17.90;99.90;;;;;;5088306;28;20039;-50
2022/06/10 10:20:36;;;;;;;13.68;3.42;;;17.90;99.90;;;;;;5045412;28;20052;-59
2022/06/10 10:23:29;;;;;;;10.50;3.20;;;17.80;99.90;;;;;;5085664;28;20521;-56
2022/06/10 10:25:55;;;;;;;10.15;3.30;;;17.80;99.90;;;;;;5087549;28;20055;-58
2022/06/10 10:28:24;;;;;;;14.82;3.47;;;17.80;99.90;;;;;;5087835;28;20751;-57
2022/06/10 10:31:05;;;;;;;9.65;2.78;;;17.70;99.90;;;;;;5077302;28;20051;-58
2022/06/10 10:33:31;;;;;;;11.35;3.03;;;17.70;99.90;;;;;;5087345;28;20052;-51
2022/06/10 10:35:59;;;;;;;11.30;3.00;;;17.70;99.90;;;;;;5069153;28;20036;-50
2022/06/10 10:38:28;;;;;;;11.70;3.25;;;17.80;99.90;;;;;;5085721;28;20502;-58
2022/06/10 10:40:54;;;;;;;15.98;3.28;;;17.80;99.90;;;;;;5085667;28;20251;-53
2022/06/10 10:43:24;;;;;;;11.07;3.10;;;17.80;99.90;;;;;;5087665;28;20047;-49
2022/06/10 10:46:05;;;;;;;9.45;3.38;;;17.80;99.90;;;;;;5087482;28;20105;-62
2022/06/10 10:48:34;;;;;;;17.25;3.40;;;17.70;99.90;;;;;;5087313;28;20459;-59
2022/06/10 10:51:12;;;;;;;15.13;3.17;;;17.80;99.90;;;;;;5085662;28;20051;-57
2022/06/10 10:53:37;;;;;;;8.70;2.90;;;17.80;99.90;;;;;;5064426;28;20067;-56
2022/06/10 10:56:05;;;;;;;17.35;3.97;;;17.90;99.90;;;;;;5069122;28;20055;-65
2022/06/10 10:58:36;;;;;;;13.85;3.53;;;18.10;99.90;;;;;;5082937;28;20055;-59
2022/06/10 11:01:43;;;;;;;14.82;3.15;;;18.20;99.90;;;;;;5085210;28;20101;-51
2022/06/10 11:03:56;;;;;;;11.82;3.45;;;18.40;99.90;;;;;;5084697;28;20099;-55
2022/06/10 11:06:28;;;;;;;14.77;4.00;;;18.60;99.90;;;;;;5086886;28;20425;-51
2022/06/10 11:09:00;;;;;;;14.00;3.30;;;18.80;99.90;;;;;;5078962;28;20131;-67
2022/06/10 11:11:36;;;;;;;12.65;3.42;;;18.90;99.90;;;;;;5069010;28;20051;-54
2022/06/10 11:14:34;;;;;;;9.43;3.00;;;19.00;99.90;;;;;;5083744;28;20071;-53
2022/06/10 11:17:14;;;;;;;18.13;3.47;;;19.10;99.90;;;;;;5068680;28;20056;-60
2022/06/10 11:19:43;;;;;;;13.10;3.10;;;19.10;99.90;;;;;;5086342;28;20036;-54
2022/06/10 11:22:21;;;;;;;;;;;19.20;99.90;;;;;;5049011;28;20145;-56
2022/06/10 11:24:51;;;;;;;12.57;3.20;;;19.10;99.90;;;;;;5086364;28;19920;-60
2022/06/10 11:27:29;;;;;;;10.05;2.90;;;19.10;99.90;;;;;;5086503;28;20478;-56
2022/06/10 11:30:10;;;;;;;9.85;2.90;;;19.00;99.90;;;;;;5086954;28;20032;-50
2022/06/10 11:32:48;;;;;;;10.32;3.10;;;19.00;99.90;;;;;;5086250;28;20510;-52
2022/06/10 11:35:26;;;;;;;12.65;3.10;;;19.00;99.90;;;;;;5055807;28;20047;-55
2022/06/10 11:38:08;;;;;;;9.60;3.28;;;18.90;99.90;;;;;;5068220;28;20048;-53
2022/06/10 11:40:46;;;;;;;12.70;3.38;;;19.00;99.90;;;;;;5058008;28;20050;-60
2022/06/10 11:43:27;;;;;;;16.33;3.13;;;19.00;99.90;;;;;;5067995;28;20051;-49
2022/06/10 11:45:59;;;;;;;8.68;2.92;;;19.10;99.90;;;;;;5067818;28;20083;-58
2022/06/10 11:48:42;;;;;;;9.07;3.28;;;19.10;99.90;;;;;;5047861;28;20051;-58
2022/06/10 11:51:12;;;;;;;7.05;2.40;;;19.10;99.90;;;;;;5084235;28;20047;-64
2022/06/10 11:54:04;;;;;;;18.42;3.47;;;19.10;99.90;;;;;;5067809;28;20047;-56
2022/06/10 11:59:49;;;;;;;9.00;2.60;;;19.10;99.90;;;;;;5086387;28;20048;-53
2022/06/10 12:02:54;;;;;;;7.32;2.55;;;19.30;99.90;;;;;;5066357;28;20062;-52
2022/06/10 12:05:42;;;;;;;6.60;2.10;;;19.40;99.90;;;;;;5065586;28;20208;-54
2022/06/10 12:08:46;;;;;;;10.90;3.25;;;19.50;99.90;;;;;;5078834;28;20049;-62
2022/06/10 12:11:33;;;;;;;14.18;3.30;;;19.50;99.90;;;;;;5057157;28;20486;-57
2022/06/10 12:14:25;;;;;;;8.63;2.55;;;19.40;99.90;;;;;;5086669;28;20118;-56
2022/06/10 12:17:09;;;;;;;11.68;3.03;;;19.20;99.90;;;;;;5083670;28;20054;-56
2022/06/10 12:19:48;;;;;;;7.95;2.35;;;19.10;99.90;;;;;;5085552;28;20067;-53
2022/06/10 12:22:14;;;;;;;11.38;2.22;;;19.20;99.90;;;;;;5085943;28;20482;-49
2022/06/10 12:24:42;;;;;;;8.88;2.40;;;19.30;99.90;;;;;;5085849;28;20042;-49
2022/06/10 12:27:15;;;;;;;9.27;2.65;;;19.40;99.90;;;;;;5065748;28;20093;-51
2022/06/10 12:29:47;;;;;;;6.93;2.17;;;19.50;99.90;;;;;;5085651;28;20097;-52
2022/06/10 12:32:36;;;;;;;10.60;2.33;;;19.60;99.90;;;;;;5084373;28;20448;-60
2022/06/10 12:35:07;;;;;;;8.95;2.42;;;19.60;99.90;;;;;;5061952;28;20433;-50
2022/06/10 12:37:55;;;;;;;12.70;2.25;;;19.80;99.90;;;;;;5081657;28;20048;-54
2022/06/10 12:40:50;;;;;;;10.32;2.60;;;20.00;99.90;;;;;;5054983;28;20138;-59
2022/06/10 12:43:19;;;;;;;9.15;2.40;;;20.20;99.90;;;;;;5054051;28;20070;-64
2022/06/10 12:45:52;;;;;;;13.37;2.83;;;20.40;99.90;;;;;;5085500;28;20529;-62
2022/06/10 12:48:25;;;;;;;11.88;3.45;;;20.60;99.90;;;;;;5058668;28;20044;-59
2022/06/10 12:50:56;;;;;;;13.15;2.88;;;20.70;99.90;;;;;;5066123;28;20044;-53
2022/06/10 12:53:50;;;;;;;14.93;2.75;;;20.80;99.90;;;;;;5067188;28;20040;-52
2022/06/10 12:56:37;;;;;;;10.63;2.22;;;20.90;99.90;;;;;;5085760;28;20101;-51
2022/06/10 12:59:12;;;;;;;10.65;2.70;;;20.90;99.90;;;;;;5056546;28;20074;-54
2022/06/10 13:01:37;;;;;;;10.38;2.75;;;21.00;99.90;;;;;;5067310;28;20048;-57
2022/06/10 13:04:14;;;;;;;8.23;2.47;;;20.90;99.90;;;;;;5086233;28;20093;-56
2022/06/10 13:06:43;;;;;;;12.85;3.22;;;20.90;99.90;;;;;;5080225;28;20072;-63
2022/06/10 13:09:15;;;;;;;14.98;2.75;;;20.80;99.90;;;;;;5065591;28;20044;-53
2022/06/10 13:11:46;;;;;;;12.15;2.60;;;20.80;99.90;;;;;;5085349;28;20063;-54
2022/06/10 13:14:22;;;;;;;9.48;2.42;;;20.90;99.90;;;;;;5085488;28;20056;-52
2022/06/10 13:17:12;;;;;;;6.93;1.98;;;20.80;99.90;;;;;;5067782;28;20135;-56
2022/06/10 13:20:09;;;;;;;9.80;2.40;;;20.80;99.90;;;;;;5069069;28;20447;-60
2022/06/10 13:22:39;;;;;;;16.75;3.10;;;20.80;99.90;;;;;;5089987;28;20051;-51
2022/06/10 13:25:08;;;;;;;11.40;2.55;;;20.80;99.90;;;;;;5070657;28;20119;-56
2022/06/10 13:27:46;;;;;;;16.53;2.83;;;20.80;99.90;;;;;;5071313;28;20090;-58
2022/06/10 13:30:33;;;;;;;11.43;2.60;;;20.90;99.90;;;;;;5069452;28;20398;-58